Terminal Aerodrome Forecast
Issued by NWS

Home | Current Version | Previous Version | Text Only | Print | Product List | Glossary On
Versions: 1 2 3 4 5 6 7 8 9 10 11 12 13 14 15 16 17 18 19 20 21 22 23 24 25 26 27 28 29
000
FTUS45 KSLC 061120
TAFSGU
TAF
KSGU 061120Z 0612/0712 14009KT P6SM SCT200
     FM061700 20013G23KT P6SM FEW080 SCT200
     FM062100 24013G23KT P6SM VCSH BKN080 OVC140
     FM070100 24010KT P6SM SCT080 BKN140
     FM070400 16008KT P6SM BKN100
      AMD LTD TO CLD VIS AND WIND=

USA.gov is the U.S. government's official web portal to all federal, state and local government web resources and services.